sensor_id;sensor_type;location;lat;lon;timestamp;temperature;humidity
49218;DHT22;35045;51.194;7.268;2023-04-24T00:01:18;10.10;99.90
49218;DHT22;35045;51.194;7.268;2023-04-24T00:03:45;10.20;99.90
49218;DHT22;35045;51.194;7.268;2023-04-24T00:06:11;10.20;99.90
49218;DHT22;35045;51.194;7.268;2023-04-24T00:08:37;10.20;99.90
49218;DHT22;35045;51.194;7.268;2023-04-24T00:11:03;10.20;99.90
49218;DHT22;35045;51.194;7.268;2023-04-24T00:13:30;10.20;99.90
49218;DHT22;35045;51.194;7.268;2023-04-24T00:15:56;10.10;99.90
49218;DHT22;35045;51.194;7.268;2023-04-24T00:18:22;10.10;99.90
49218;DHT22;35045;51.194;7.268;2023-04-24T00:20:48;10.10;99.90
49218;DHT22;35045;51.194;7.268;2023-04-24T00:23:15;10.20;99.90
49218;DHT22;35045;51.194;7.268;2023-04-24T00:25:41;10.10;99.90
49218;DHT22;35045;51.194;7.268;2023-04-24T00:28:07;10.20;99.90
49218;DHT22;35045;51.194;7.268;2023-04-24T00:30:33;10.20;99.90
49218;DHT22;35045;51.194;7.268;2023-04-24T00:32:59;10.30;99.90
49218;DHT22;35045;51.194;7.268;2023-04-24T00:35:25;10.30;99.90
49218;DHT22;35045;51.194;7.268;2023-04-24T00:37:52;10.30;99.90
49218;DHT22;35045;51.194;7.268;2023-04-24T00:40:18;10.40;99.90
49218;DHT22;35045;51.194;7.268;2023-04-24T00:42:44;10.40;99.90
49218;DHT22;35045;51.194;7.268;2023-04-24T00:45:12;10.50;99.90
49218;DHT22;35045;51.194;7.268;2023-04-24T00:47:38;10.50;99.90
49218;DHT22;35045;51.194;7.268;2023-04-24T00:50:06;10.50;99.90
49218;DHT22;35045;51.194;7.268;2023-04-24T00:52:32;10.50;99.90
49218;DHT22;35045;51.194;7.268;2023-04-24T00:54:59;10.50;99.90
49218;DHT22;35045;51.194;7.268;2023-04-24T00:57:26;10.50;99.90
49218;DHT22;35045;51.194;7.268;2023-04-24T00:59:53;10.50;99.90
49218;DHT22;35045;51.194;7.268;2023-04-24T01:02:19;10.60;99.90
49218;DHT22;35045;51.194;7.268;2023-04-24T01:04:46;10.60;99.90
49218;DHT22;35045;51.194;7.268;2023-04-24T01:07:12;10.50;99.90
49218;DHT22;35045;51.194;7.268;2023-04-24T01:09:40;10.50;99.90
49218;DHT22;35045;51.194;7.268;2023-04-24T01:12:10;10.40;99.90
49218;DHT22;35045;51.194;7.268;2023-04-24T01:14:36;10.50;99.90
49218;DHT22;35045;51.194;7.268;2023-04-24T01:17:03;10.50;99.90
49218;DHT22;35045;51.194;7.268;2023-04-24T01:19:29;10.40;99.90
49218;DHT22;35045;51.194;7.268;2023-04-24T01:21:58;10.40;99.90
49218;DHT22;35045;51.194;7.268;2023-04-24T01:24:24;10.30;99.90
49218;DHT22;35045;51.194;7.268;2023-04-24T01:26:51;10.30;99.90
49218;DHT22;35045;51.194;7.268;2023-04-24T01:29:17;10.30;99.90
49218;DHT22;35045;51.194;7.268;2023-04-24T01:31:43;10.20;99.90
49218;DHT22;35045;51.194;7.268;2023-04-24T01:34:10;10.30;99.90
49218;DHT22;35045;51.194;7.268;2023-04-24T01:36:37;10.30;99.90
49218;DHT22;35045;51.194;7.268;2023-04-24T01:39:04;10.30;99.90
49218;DHT22;35045;51.194;7.268;2023-04-24T01:41:31;10.30;99.90
49218;DHT22;35045;51.194;7.268;2023-04-24T01:43:58;10.20;99.90
49218;DHT22;35045;51.194;7.268;2023-04-24T01:46:24;10.20;99.90
49218;DHT22;35045;51.194;7.268;2023-04-24T01:48:51;10.10;99.90
49218;DHT22;35045;51.194;7.268;2023-04-24T01:51:18;10.00;99.90
49218;DHT22;35045;51.194;7.268;2023-04-24T01:53:44;9.90;99.90
49218;DHT22;35045;51.194;7.268;2023-04-24T01:56:11;9.90;99.90
49218;DHT22;35045;51.194;7.268;2023-04-24T01:58:37;9.90;99.90
49218;DHT22;35045;51.194;7.268;2023-04-24T02:01:06;9.90;99.90
49218;DHT22;35045;51.194;7.268;2023-04-24T02:03:32;9.90;99.90
49218;DHT22;35045;51.194;7.268;2023-04-24T02:05:59;9.90;99.90
49218;DHT22;35045;51.194;7.268;2023-04-24T02:08:25;9.70;99.90
49218;DHT22;35045;51.194;7.268;2023-04-24T02:10:51;9.60;99.90
49218;DHT22;35045;51.194;7.268;2023-04-24T02:13:17;9.50;99.90
49218;DHT22;35045;51.194;7.268;2023-04-24T02:15:43;9.40;99.90
49218;DHT22;35045;51.194;7.268;2023-04-24T02:18:09;9.30;99.90
49218;DHT22;35045;51.194;7.268;2023-04-24T02:20:37;9.30;99.90
49218;DHT22;35045;51.194;7.268;2023-04-24T02:23:03;9.20;99.90
49218;DHT22;35045;51.194;7.268;2023-04-24T02:25:29;9.20;99.90
49218;DHT22;35045;51.194;7.268;2023-04-24T02:27:55;9.20;99.90
49218;DHT22;35045;51.194;7.268;2023-04-24T02:30:22;9.10;99.90
49218;DHT22;35045;51.194;7.268;2023-04-24T02:32:48;9.10;99.90
49218;DHT22;35045;51.194;7.268;2023-04-24T02:35:14;9.00;99.90
49218;DHT22;35045;51.194;7.268;2023-04-24T02:37:40;9.00;99.90
49218;DHT22;35045;51.194;7.268;2023-04-24T02:40:07;8.90;99.90
49218;DHT22;35045;51.194;7.268;2023-04-24T02:42:33;8.90;99.90
49218;DHT22;35045;51.194;7.268;2023-04-24T02:45:00;8.90;99.90
49218;DHT22;35045;51.194;7.268;2023-04-24T02:47:26;8.80;99.90
49218;DHT22;35045;51.194;7.268;2023-04-24T02:49:53;8.80;99.90
49218;DHT22;35045;51.194;7.268;2023-04-24T02:52:19;8.80;99.90
49218;DHT22;35045;51.194;7.268;2023-04-24T02:54:45;8.80;99.90
49218;DHT22;35045;51.194;7.268;2023-04-24T02:57:11;8.80;99.90
49218;DHT22;35045;51.194;7.268;2023-04-24T02:59:37;8.70;99.90
49218;DHT22;35045;51.194;7.268;2023-04-24T03:02:03;8.60;99.90
49218;DHT22;35045;51.194;7.268;2023-04-24T03:04:29;8.60;99.90
49218;DHT22;35045;51.194;7.268;2023-04-24T03:06:56;8.60;99.90
49218;DHT22;35045;51.194;7.268;2023-04-24T03:09:22;8.60;99.90
49218;DHT22;35045;51.194;7.268;2023-04-24T03:11:48;8.60;99.90
49218;DHT22;35045;51.194;7.268;2023-04-24T03:14:15;8.60;99.90
49218;DHT22;35045;51.194;7.268;2023-04-24T03:16:42;8.60;99.90
49218;DHT22;35045;51.194;7.268;2023-04-24T03:19:08;8.70;99.90
49218;DHT22;35045;51.194;7.268;2023-04-24T03:21:34;8.60;99.90
49218;DHT22;35045;51.194;7.268;2023-04-24T03:24:01;8.70;99.90
49218;DHT22;35045;51.194;7.268;2023-04-24T03:26:28;8.60;99.90
49218;DHT22;35045;51.194;7.268;2023-04-24T03:28:54;8.60;99.90
49218;DHT22;35045;51.194;7.268;2023-04-24T03:31:20;8.60;99.90
49218;DHT22;35045;51.194;7.268;2023-04-24T03:33:47;8.60;99.90
49218;DHT22;35045;51.194;7.268;2023-04-24T03:36:13;8.60;99.90
49218;DHT22;35045;51.194;7.268;2023-04-24T03:38:39;8.50;99.90
49218;DHT22;35045;51.194;7.268;2023-04-24T03:41:05;8.50;99.90
49218;DHT22;35045;51.194;7.268;2023-04-24T03:43:31;8.60;99.90
49218;DHT22;35045;51.194;7.268;2023-04-24T03:45:59;8.60;99.90
49218;DHT22;35045;51.194;7.268;2023-04-24T03:48:25;8.50;99.90
49218;DHT22;35045;51.194;7.268;2023-04-24T03:50:51;8.50;99.90
49218;DHT22;35045;51.194;7.268;2023-04-24T03:53:17;8.50;99.90
49218;DHT22;35045;51.194;7.268;2023-04-24T03:55:44;8.50;99.90
49218;DHT22;35045;51.194;7.268;2023-04-24T03:58:10;8.50;99.90
49218;DHT22;35045;51.194;7.268;2023-04-24T04:00:37;8.50;99.90
49218;DHT22;35045;51.194;7.268;2023-04-24T04:03:03;8.60;99.90
49218;DHT22;35045;51.194;7.268;2023-04-24T04:05:29;8.60;99.90
49218;DHT22;35045;51.194;7.268;2023-04-24T04:07:56;8.70;99.90
49218;DHT22;35045;51.194;7.268;2023-04-24T04:10:22;8.70;99.90
49218;DHT22;35045;51.194;7.268;2023-04-24T04:12:48;8.70;99.90
49218;DHT22;35045;51.194;7.268;2023-04-24T04:15:14;8.70;99.90
49218;DHT22;35045;51.194;7.268;2023-04-24T04:17:40;8.70;99.90
49218;DHT22;35045;51.194;7.268;2023-04-24T04:20:07;8.70;99.90
49218;DHT22;35045;51.194;7.268;2023-04-24T04:22:36;8.70;99.90
49218;DHT22;35045;51.194;7.268;2023-04-24T04:25:03;8.50;99.90
49218;DHT22;35045;51.194;7.268;2023-04-24T04:27:30;8.60;99.90
49218;DHT22;35045;51.194;7.268;2023-04-24T04:29:58;8.50;99.90
49218;DHT22;35045;51.194;7.268;2023-04-24T04:32:28;8.50;99.90
49218;DHT22;35045;51.194;7.268;2023-04-24T04:34:55;8.40;99.90
49218;DHT22;35045;51.194;7.268;2023-04-24T04:37:21;8.50;99.90
49218;DHT22;35045;51.194;7.268;2023-04-24T04:39:47;8.50;99.90
49218;DHT22;35045;51.194;7.268;2023-04-24T04:42:13;8.50;99.90
49218;DHT22;35045;51.194;7.268;2023-04-24T04:44:39;8.60;99.90
49218;DHT22;35045;51.194;7.268;2023-04-24T04:47:06;8.50;99.90
49218;DHT22;35045;51.194;7.268;2023-04-24T04:49:32;8.50;99.90
49218;DHT22;35045;51.194;7.268;2023-04-24T04:51:58;8.50;99.90
49218;DHT22;35045;51.194;7.268;2023-04-24T04:54:24;8.50;99.90
49218;DHT22;35045;51.194;7.268;2023-04-24T04:56:50;8.50;99.90
49218;DHT22;35045;51.194;7.268;2023-04-24T04:59:17;8.50;99.90
49218;DHT22;35045;51.194;7.268;2023-04-24T05:01:43;8.40;99.90
49218;DHT22;35045;51.194;7.268;2023-04-24T05:04:09;8.40;99.90
49218;DHT22;35045;51.194;7.268;2023-04-24T05:06:35;8.40;99.90
49218;DHT22;35045;51.194;7.268;2023-04-24T05:09:01;8.40;99.90
49218;DHT22;35045;51.194;7.268;2023-04-24T05:11:27;8.40;99.90
49218;DHT22;35045;51.194;7.268;2023-04-24T05:13:53;8.40;99.90
49218;DHT22;35045;51.194;7.268;2023-04-24T05:16:19;8.40;99.90
49218;DHT22;35045;51.194;7.268;2023-04-24T05:18:46;8.40;99.90
49218;DHT22;35045;51.194;7.268;2023-04-24T05:21:12;8.30;99.90
49218;DHT22;35045;51.194;7.268;2023-04-24T05:23:38;8.30;99.90
49218;DHT22;35045;51.194;7.268;2023-04-24T05:26:04;8.30;99.90
49218;DHT22;35045;51.194;7.268;2023-04-24T05:28:32;8.30;99.90
49218;DHT22;35045;51.194;7.268;2023-04-24T05:30:58;8.30;99.90
49218;DHT22;35045;51.194;7.268;2023-04-24T05:33:25;8.30;99.90
49218;DHT22;35045;51.194;7.268;2023-04-24T05:35:51;8.30;99.90
49218;DHT22;35045;51.194;7.268;2023-04-24T05:38:17;8.30;99.90
49218;DHT22;35045;51.194;7.268;2023-04-24T05:40:45;8.20;99.90
49218;DHT22;35045;51.194;7.268;2023-04-24T05:43:12;8.20;99.90
49218;DHT22;35045;51.194;7.268;2023-04-24T05:45:38;8.30;99.90
49218;DHT22;35045;51.194;7.268;2023-04-24T05:48:05;8.30;99.90
49218;DHT22;35045;51.194;7.268;2023-04-24T05:50:31;8.30;99.90
49218;DHT22;35045;51.194;7.268;2023-04-24T05:52:58;8.40;99.90
49218;DHT22;35045;51.194;7.268;2023-04-24T05:55:25;8.30;99.90
49218;DHT22;35045;51.194;7.268;2023-04-24T05:57:51;8.30;99.90
49218;DHT22;35045;51.194;7.268;2023-04-24T06:00:17;8.30;99.90
49218;DHT22;35045;51.194;7.268;2023-04-24T06:02:46;8.20;99.90
49218;DHT22;35045;51.194;7.268;2023-04-24T06:05:13;8.10;99.90
49218;DHT22;35045;51.194;7.268;2023-04-24T06:07:39;8.10;99.90
49218;DHT22;35045;51.194;7.268;2023-04-24T06:10:06;8.10;99.90
49218;DHT22;35045;51.194;7.268;2023-04-24T06:12:32;8.00;99.90
49218;DHT22;35045;51.194;7.268;2023-04-24T06:14:59;8.00;99.90
49218;DHT22;35045;51.194;7.268;2023-04-24T06:17:26;8.00;99.90
49218;DHT22;35045;51.194;7.268;2023-04-24T06:19:52;8.00;99.90
49218;DHT22;35045;51.194;7.268;2023-04-24T06:22:18;7.90;99.90
49218;DHT22;35045;51.194;7.268;2023-04-24T06:24:44;7.90;99.90
49218;DHT22;35045;51.194;7.268;2023-04-24T06:27:10;7.80;99.90
49218;DHT22;35045;51.194;7.268;2023-04-24T06:29:37;7.90;99.90
49218;DHT22;35045;51.194;7.268;2023-04-24T06:32:03;7.80;99.90
49218;DHT22;35045;51.194;7.268;2023-04-24T06:34:29;7.80;99.90
49218;DHT22;35045;51.194;7.268;2023-04-24T06:36:56;7.80;99.90
49218;DHT22;35045;51.194;7.268;2023-04-24T06:39:22;7.80;99.90
49218;DHT22;35045;51.194;7.268;2023-04-24T06:41:49;7.80;99.90
49218;DHT22;35045;51.194;7.268;2023-04-24T06:44:15;7.80;99.90
49218;DHT22;35045;51.194;7.268;2023-04-24T06:46:41;7.70;99.90
49218;DHT22;35045;51.194;7.268;2023-04-24T06:49:07;7.70;99.90
49218;DHT22;35045;51.194;7.268;2023-04-24T06:51:34;7.70;99.90
49218;DHT22;35045;51.194;7.268;2023-04-24T06:54:00;7.60;99.90
49218;DHT22;35045;51.194;7.268;2023-04-24T06:56:26;7.70;99.90
49218;DHT22;35045;51.194;7.268;2023-04-24T06:58:54;7.70;99.90
49218;DHT22;35045;51.194;7.268;2023-04-24T07:01:21;7.70;99.90
49218;DHT22;35045;51.194;7.268;2023-04-24T07:03:47;7.70;99.90
49218;DHT22;35045;51.194;7.268;2023-04-24T07:06:13;7.70;99.90
49218;DHT22;35045;51.194;7.268;2023-04-24T07:08:39;7.70;99.90
49218;DHT22;35045;51.194;7.268;2023-04-24T07:11:07;7.60;99.90
49218;DHT22;35045;51.194;7.268;2023-04-24T07:13:33;7.50;99.90
49218;DHT22;35045;51.194;7.268;2023-04-24T07:16:01;7.50;99.90
49218;DHT22;35045;51.194;7.268;2023-04-24T07:18:27;7.50;99.90
49218;DHT22;35045;51.194;7.268;2023-04-24T07:20:53;7.60;99.90
49218;DHT22;35045;51.194;7.268;2023-04-24T07:23:19;7.60;99.90
49218;DHT22;35045;51.194;7.268;2023-04-24T07:25:46;7.60;99.90
49218;DHT22;35045;51.194;7.268;2023-04-24T07:28:12;7.50;99.90
49218;DHT22;35045;51.194;7.268;2023-04-24T07:30:39;7.50;99.90
49218;DHT22;35045;51.194;7.268;2023-04-24T07:33:05;7.40;99.90
49218;DHT22;35045;51.194;7.268;2023-04-24T07:35:33;7.40;99.90
49218;DHT22;35045;51.194;7.268;2023-04-24T07:37:59;7.30;99.90
49218;DHT22;35045;51.194;7.268;2023-04-24T07:40:26;7.30;99.90
49218;DHT22;35045;51.194;7.268;2023-04-24T07:42:52;7.30;99.90
49218;DHT22;35045;51.194;7.268;2023-04-24T07:45:18;7.20;99.90
49218;DHT22;35045;51.194;7.268;2023-04-24T07:47:46;7.20;99.90
49218;DHT22;35045;51.194;7.268;2023-04-24T07:50:12;7.20;99.90
49218;DHT22;35045;51.194;7.268;2023-04-24T07:52:39;7.20;99.90
49218;DHT22;35045;51.194;7.268;2023-04-24T07:55:05;7.20;99.90
49218;DHT22;35045;51.194;7.268;2023-04-24T07:57:31;7.10;99.90
49218;DHT22;35045;51.194;7.268;2023-04-24T08:00:00;7.00;99.90
49218;DHT22;35045;51.194;7.268;2023-04-24T08:02:26;7.00;99.90
49218;DHT22;35045;51.194;7.268;2023-04-24T08:04:53;7.00;99.90
49218;DHT22;35045;51.194;7.268;2023-04-24T08:07:20;6.90;99.90
49218;DHT22;35045;51.194;7.268;2023-04-24T08:09:46;6.90;99.90
49218;DHT22;35045;51.194;7.268;2023-04-24T08:12:12;6.90;99.90
49218;DHT22;35045;51.194;7.268;2023-04-24T08:14:38;6.90;99.90
49218;DHT22;35045;51.194;7.268;2023-04-24T08:17:05;6.90;99.90
49218;DHT22;35045;51.194;7.268;2023-04-24T08:19:31;6.90;99.90
49218;DHT22;35045;51.194;7.268;2023-04-24T08:21:57;6.80;99.90
49218;DHT22;35045;51.194;7.268;2023-04-24T08:24:23;6.70;99.90
49218;DHT22;35045;51.194;7.268;2023-04-24T08:26:49;6.50;99.90
49218;DHT22;35045;51.194;7.268;2023-04-24T08:29:17;6.50;99.90
49218;DHT22;35045;51.194;7.268;2023-04-24T08:31:43;6.40;99.90
49218;DHT22;35045;51.194;7.268;2023-04-24T08:34:10;6.40;99.90
49218;DHT22;35045;51.194;7.268;2023-04-24T08:36:37;6.50;99.90
49218;DHT22;35045;51.194;7.268;2023-04-24T08:39:08;6.50;99.90
49218;DHT22;35045;51.194;7.268;2023-04-24T08:41:35;6.50;99.90
49218;DHT22;35045;51.194;7.268;2023-04-24T08:44:02;6.50;99.90
49218;DHT22;35045;51.194;7.268;2023-04-24T08:46:30;6.40;99.90
49218;DHT22;35045;51.194;7.268;2023-04-24T08:48:57;6.30;99.90
49218;DHT22;35045;51.194;7.268;2023-04-24T08:51:26;6.30;99.90
49218;DHT22;35045;51.194;7.268;2023-04-24T08:53:54;6.30;99.90
49218;DHT22;35045;51.194;7.268;2023-04-24T08:56:21;6.30;99.90
49218;DHT22;35045;51.194;7.268;2023-04-24T08:58:53;6.30;99.90
49218;DHT22;35045;51.194;7.268;2023-04-24T09:01:20;6.40;99.90
49218;DHT22;35045;51.194;7.268;2023-04-24T09:03:48;6.30;99.90
49218;DHT22;35045;51.194;7.268;2023-04-24T09:06:16;6.40;99.90
49218;DHT22;35045;51.194;7.268;2023-04-24T09:08:43;6.50;99.90
49218;DHT22;35045;51.194;7.268;2023-04-24T09:11:11;6.50;99.90
49218;DHT22;35045;51.194;7.268;2023-04-24T09:13:37;6.50;99.90
49218;DHT22;35045;51.194;7.268;2023-04-24T09:16:04;6.50;99.90
49218;DHT22;35045;51.194;7.268;2023-04-24T09:18:30;6.50;99.90
49218;DHT22;35045;51.194;7.268;2023-04-24T09:20:58;6.60;99.90
49218;DHT22;35045;51.194;7.268;2023-04-24T09:23:27;6.80;99.90
49218;DHT22;35045;51.194;7.268;2023-04-24T09:25:57;6.90;99.90
49218;DHT22;35045;51.194;7.268;2023-04-24T09:28:31;7.00;99.90
49218;DHT22;35045;51.194;7.268;2023-04-24T09:31:14;7.00;99.90
49218;DHT22;35045;51.194;7.268;2023-04-24T09:34:03;7.00;99.90
49218;DHT22;35045;51.194;7.268;2023-04-24T09:36:37;7.10;99.90
49218;DHT22;35045;51.194;7.268;2023-04-24T09:39:08;6.90;99.90
49218;DHT22;35045;51.194;7.268;2023-04-24T09:41:53;6.80;99.90
49218;DHT22;35045;51.194;7.268;2023-04-24T09:44:24;6.70;99.90
49218;DHT22;35045;51.194;7.268;2023-04-24T09:46:58;6.70;99.90
49218;DHT22;35045;51.194;7.268;2023-04-24T09:49:29;6.60;99.90
49218;DHT22;35045;51.194;7.268;2023-04-24T09:52:09;6.60;99.90
49218;DHT22;35045;51.194;7.268;2023-04-24T09:54:36;6.50;99.90
49218;DHT22;35045;51.194;7.268;2023-04-24T09:57:03;6.50;99.90
49218;DHT22;35045;51.194;7.268;2023-04-24T09:59:29;6.50;99.90
49218;DHT22;35045;51.194;7.268;2023-04-24T10:01:55;6.60;99.90
49218;DHT22;35045;51.194;7.268;2023-04-24T10:04:24;6.60;99.90
49218;DHT22;35045;51.194;7.268;2023-04-24T10:06:52;6.50;99.90
49218;DHT22;35045;51.194;7.268;2023-04-24T10:09:19;6.40;99.90
49218;DHT22;35045;51.194;7.268;2023-04-24T10:11:48;6.40;99.90
49218;DHT22;35045;51.194;7.268;2023-04-24T10:14:19;6.50;99.90
49218;DHT22;35045;51.194;7.268;2023-04-24T10:16:47;6.40;99.90
49218;DHT22;35045;51.194;7.268;2023-04-24T10:19:15;6.50;99.90
49218;DHT22;35045;51.194;7.268;2023-04-24T10:21:43;6.50;99.90
49218;DHT22;35045;51.194;7.268;2023-04-24T10:24:16;6.50;99.90
49218;DHT22;35045;51.194;7.268;2023-04-24T10:26:44;6.60;99.90
49218;DHT22;35045;51.194;7.268;2023-04-24T10:29:16;6.60;99.90
49218;DHT22;35045;51.194;7.268;2023-04-24T10:31:43;6.70;99.90
49218;DHT22;35045;51.194;7.268;2023-04-24T10:34:12;6.60;99.90
49218;DHT22;35045;51.194;7.268;2023-04-24T10:36:56;6.80;99.90
49218;DHT22;35045;51.194;7.268;2023-04-24T10:39:23;6.80;99.90
49218;DHT22;35045;51.194;7.268;2023-04-24T10:41:50;6.80;99.90
49218;DHT22;35045;51.194;7.268;2023-04-24T10:44:16;6.90;99.90
49218;DHT22;35045;51.194;7.268;2023-04-24T10:46:44;7.00;99.90
49218;DHT22;35045;51.194;7.268;2023-04-24T10:49:11;7.00;99.90
49218;DHT22;35045;51.194;7.268;2023-04-24T10:52:03;7.00;99.90
49218;DHT22;35045;51.194;7.268;2023-04-24T10:54:40;7.00;99.90
49218;DHT22;35045;51.194;7.268;2023-04-24T10:59:49;7.00;99.90
49218;DHT22;35045;51.194;7.268;2023-04-24T11:02:17;7.00;99.90
49218;DHT22;35045;51.194;7.268;2023-04-24T11:04:44;7.10;99.90
49218;DHT22;35045;51.194;7.268;2023-04-24T11:07:11;7.00;99.90
49218;DHT22;35045;51.194;7.268;2023-04-24T11:09:38;6.80;99.90
49218;DHT22;35045;51.194;7.268;2023-04-24T11:12:09;6.80;99.90
49218;DHT22;35045;51.194;7.268;2023-04-24T11:17:37;6.70;99.90
49218;DHT22;35045;51.194;7.268;2023-04-24T11:20:07;6.70;99.90
49218;DHT22;35045;51.194;7.268;2023-04-24T11:22:40;6.70;99.90
49218;DHT22;35045;51.194;7.268;2023-04-24T11:25:07;6.80;99.90
49218;DHT22;35045;51.194;7.268;2023-04-24T11:27:44;6.90;99.90
49218;DHT22;35045;51.194;7.268;2023-04-24T11:30:12;7.00;99.90
49218;DHT22;35045;51.194;7.268;2023-04-24T11:32:43;7.00;99.90
49218;DHT22;35045;51.194;7.268;2023-04-24T11:37:45;7.10;99.90
49218;DHT22;35045;51.194;7.268;2023-04-24T11:40:13;7.10;99.90
49218;DHT22;35045;51.194;7.268;2023-04-24T11:42:43;7.20;99.90
49218;DHT22;35045;51.194;7.268;2023-04-24T11:45:11;7.40;99.90
49218;DHT22;35045;51.194;7.268;2023-04-24T11:47:39;7.50;99.90
49218;DHT22;35045;51.194;7.268;2023-04-24T11:50:07;7.50;99.90
49218;DHT22;35045;51.194;7.268;2023-04-24T11:52:39;7.40;99.90
49218;DHT22;35045;51.194;7.268;2023-04-24T11:55:23;7.40;99.90
49218;DHT22;35045;51.194;7.268;2023-04-24T11:57:56;7.40;99.90
49218;DHT22;35045;51.194;7.268;2023-04-24T12:00:25;7.40;99.90
49218;DHT22;35045;51.194;7.268;2023-04-24T12:03:07;7.40;99.90
49218;DHT22;35045;51.194;7.268;2023-04-24T12:05:33;7.40;99.90
49218;DHT22;35045;51.194;7.268;2023-04-24T12:08:01;7.50;99.90
49218;DHT22;35045;51.194;7.268;2023-04-24T12:10:28;7.70;99.90
49218;DHT22;35045;51.194;7.268;2023-04-24T12:12:56;7.80;99.90
49218;DHT22;35045;51.194;7.268;2023-04-24T12:15:23;7.90;99.90
49218;DHT22;35045;51.194;7.268;2023-04-24T12:17:53;8.00;99.90
49218;DHT22;35045;51.194;7.268;2023-04-24T12:20:28;8.20;99.90
49218;DHT22;35045;51.194;7.268;2023-04-24T12:22:56;8.50;99.90
49218;DHT22;35045;51.194;7.268;2023-04-24T12:25:42;8.60;99.90
49218;DHT22;35045;51.194;7.268;2023-04-24T12:28:10;8.50;99.90
49218;DHT22;35045;51.194;7.268;2023-04-24T12:30:42;8.30;99.90
49218;DHT22;35045;51.194;7.268;2023-04-24T12:33:10;8.20;99.90
49218;DHT22;35045;51.194;7.268;2023-04-24T12:35:36;8.10;99.90
49218;DHT22;35045;51.194;7.268;2023-04-24T12:38:10;8.10;99.90
49218;DHT22;35045;51.194;7.268;2023-04-24T12:40:36;8.00;99.90
49218;DHT22;35045;51.194;7.268;2023-04-24T12:43:16;8.00;99.90
49218;DHT22;35045;51.194;7.268;2023-04-24T12:45:42;8.10;99.90
49218;DHT22;35045;51.194;7.268;2023-04-24T12:48:08;8.20;99.90
49218;DHT22;35045;51.194;7.268;2023-04-24T12:50:35;8.20;99.90
49218;DHT22;35045;51.194;7.268;2023-04-24T12:53:01;8.20;99.90
49218;DHT22;35045;51.194;7.268;2023-04-24T12:55:27;8.60;99.90
49218;DHT22;35045;51.194;7.268;2023-04-24T12:57:54;8.90;99.90
49218;DHT22;35045;51.194;7.268;2023-04-24T13:00:21;9.10;99.90
49218;DHT22;35045;51.194;7.268;2023-04-24T13:02:47;9.10;99.90
49218;DHT22;35045;51.194;7.268;2023-04-24T13:05:13;9.00;99.90
49218;DHT22;35045;51.194;7.268;2023-04-24T13:07:40;8.90;99.90
49218;DHT22;35045;51.194;7.268;2023-04-24T13:10:07;9.00;99.90
49218;DHT22;35045;51.194;7.268;2023-04-24T13:12:34;9.10;99.90
49218;DHT22;35045;51.194;7.268;2023-04-24T13:15:00;9.10;99.90
49218;DHT22;35045;51.194;7.268;2023-04-24T13:17:27;9.20;99.90
49218;DHT22;35045;51.194;7.268;2023-04-24T13:19:54;8.90;99.90
49218;DHT22;35045;51.194;7.268;2023-04-24T13:22:21;8.90;99.90
49218;DHT22;35045;51.194;7.268;2023-04-24T13:24:47;8.90;99.90
49218;DHT22;35045;51.194;7.268;2023-04-24T13:27:18;9.00;99.90
49218;DHT22;35045;51.194;7.268;2023-04-24T13:29:45;9.50;99.90
49218;DHT22;35045;51.194;7.268;2023-04-24T13:32:11;9.90;99.90
49218;DHT22;35045;51.194;7.268;2023-04-24T13:34:37;10.00;99.90
49218;DHT22;35045;51.194;7.268;2023-04-24T13:37:04;10.00;99.90
49218;DHT22;35045;51.194;7.268;2023-04-24T13:39:30;9.80;99.90
49218;DHT22;35045;51.194;7.268;2023-04-24T13:41:57;9.70;99.90
49218;DHT22;35045;51.194;7.268;2023-04-24T13:44:24;9.80;99.90
49218;DHT22;35045;51.194;7.268;2023-04-24T13:46:52;9.80;99.90
49218;DHT22;35045;51.194;7.268;2023-04-24T13:49:20;10.10;99.90
49218;DHT22;35045;51.194;7.268;2023-04-24T13:51:47;10.10;99.90
49218;DHT22;35045;51.194;7.268;2023-04-24T13:54:13;10.20;99.90
49218;DHT22;35045;51.194;7.268;2023-04-24T13:56:40;10.00;99.90
49218;DHT22;35045;51.194;7.268;2023-04-24T13:59:06;9.80;99.90
49218;DHT22;35045;51.194;7.268;2023-04-24T14:01:33;9.60;99.90
49218;DHT22;35045;51.194;7.268;2023-04-24T14:03:59;9.60;99.90
49218;DHT22;35045;51.194;7.268;2023-04-24T14:06:26;9.90;99.90
49218;DHT22;35045;51.194;7.268;2023-04-24T14:08:52;10.10;99.90
49218;DHT22;35045;51.194;7.268;2023-04-24T14:11:19;10.10;99.90
49218;DHT22;35045;51.194;7.268;2023-04-24T14:13:46;10.10;99.90
49218;DHT22;35045;51.194;7.268;2023-04-24T14:16:12;9.90;99.90
49218;DHT22;35045;51.194;7.268;2023-04-24T14:18:38;9.70;99.90
49218;DHT22;35045;51.194;7.268;2023-04-24T14:21:04;9.60;99.90
49218;DHT22;35045;51.194;7.268;2023-04-24T14:23:31;9.50;99.90
49218;DHT22;35045;51.194;7.268;2023-04-24T14:25:58;9.40;99.90
49218;DHT22;35045;51.194;7.268;2023-04-24T14:28:25;10.10;99.90
49218;DHT22;35045;51.194;7.268;2023-04-24T14:30:52;10.30;99.90
49218;DHT22;35045;51.194;7.268;2023-04-24T14:33:19;10.30;99.90
49218;DHT22;35045;51.194;7.268;2023-04-24T14:35:45;10.10;99.90
49218;DHT22;35045;51.194;7.268;2023-04-24T14:38:12;10.00;99.90
49218;DHT22;35045;51.194;7.268;2023-04-24T14:40:38;9.80;99.90
49218;DHT22;35045;51.194;7.268;2023-04-24T14:43:07;9.50;99.90
49218;DHT22;35045;51.194;7.268;2023-04-24T14:45:33;9.40;99.90
49218;DHT22;35045;51.194;7.268;2023-04-24T14:47:59;9.40;99.90
49218;DHT22;35045;51.194;7.268;2023-04-24T14:50:25;9.40;99.90
49218;DHT22;35045;51.194;7.268;2023-04-24T14:52:54;9.50;99.90
49218;DHT22;35045;51.194;7.268;2023-04-24T14:55:25;9.80;99.90
49218;DHT22;35045;51.194;7.268;2023-04-24T14:57:52;10.00;99.90
49218;DHT22;35045;51.194;7.268;2023-04-24T15:00:19;10.00;99.90
49218;DHT22;35045;51.194;7.268;2023-04-24T15:02:46;10.00;99.90
49218;DHT22;35045;51.194;7.268;2023-04-24T15:05:12;10.10;99.90
49218;DHT22;35045;51.194;7.268;2023-04-24T15:07:39;10.10;99.90
49218;DHT22;35045;51.194;7.268;2023-04-24T15:10:07;10.10;99.90
49218;DHT22;35045;51.194;7.268;2023-04-24T15:12:34;10.10;99.90
49218;DHT22;35045;51.194;7.268;2023-04-24T15:15:00;10.00;99.90
49218;DHT22;35045;51.194;7.268;2023-04-24T15:17:26;10.10;99.90
49218;DHT22;35045;51.194;7.268;2023-04-24T15:19:52;10.20;99.90
49218;DHT22;35045;51.194;7.268;2023-04-24T15:22:19;10.50;99.90
49218;DHT22;35045;51.194;7.268;2023-04-24T15:24:45;11.10;99.90
49218;DHT22;35045;51.194;7.268;2023-04-24T15:27:11;12.00;99.90
49218;DHT22;35045;51.194;7.268;2023-04-24T15:29:37;13.70;99.90
49218;DHT22;35045;51.194;7.268;2023-04-24T15:32:04;13.50;99.70
49218;DHT22;35045;51.194;7.268;2023-04-24T15:34:30;12.80;99.00
49218;DHT22;35045;51.194;7.268;2023-04-24T15:36:58;12.10;99.50
49218;DHT22;35045;51.194;7.268;2023-04-24T15:39:25;11.40;99.90
49218;DHT22;35045;51.194;7.268;2023-04-24T15:41:51;11.00;99.90
49218;DHT22;35045;51.194;7.268;2023-04-24T15:44:20;10.90;99.90
49218;DHT22;35045;51.194;7.268;2023-04-24T15:46:46;10.90;99.90
49218;DHT22;35045;51.194;7.268;2023-04-24T15:49:12;11.10;99.90
49218;DHT22;35045;51.194;7.268;2023-04-24T15:51:39;11.70;99.90